sensor_id;sensor_type;location;lat;lon;timestamp;temperature;humidity
40053;DHT22;25758;48.200;16.338;2023-07-31T00:00:28;20.90;99.90
40053;DHT22;25758;48.200;16.338;2023-07-31T00:02:54;20.80;99.90
40053;DHT22;25758;48.200;16.338;2023-07-31T00:05:20;20.80;99.90
40053;DHT22;25758;48.200;16.338;2023-07-31T00:07:46;20.80;99.90
40053;DHT22;25758;48.200;16.338;2023-07-31T00:10:12;20.80;99.90
40053;DHT22;25758;48.200;16.338;2023-07-31T00:12:39;20.80;99.90
40053;DHT22;25758;48.200;16.338;2023-07-31T00:15:06;20.80;99.90
40053;DHT22;25758;48.200;16.338;2023-07-31T00:17:31;20.70;99.90
40053;DHT22;25758;48.200;16.338;2023-07-31T00:19:57;20.70;99.90
40053;DHT22;25758;48.200;16.338;2023-07-31T00:22:22;20.70;99.90
40053;DHT22;25758;48.200;16.338;2023-07-31T00:24:48;20.70;99.90
40053;DHT22;25758;48.200;16.338;2023-07-31T00:27:14;20.70;99.90
40053;DHT22;25758;48.200;16.338;2023-07-31T00:29:39;20.50;99.90
40053;DHT22;25758;48.200;16.338;2023-07-31T00:32:05;20.50;99.90
40053;DHT22;25758;48.200;16.338;2023-07-31T00:34:31;20.50;99.90
40053;DHT22;25758;48.200;16.338;2023-07-31T00:36:57;20.60;99.90
40053;DHT22;25758;48.200;16.338;2023-07-31T00:39:22;20.40;99.90
40053;DHT22;25758;48.200;16.338;2023-07-31T00:41:48;20.30;99.90
40053;DHT22;25758;48.200;16.338;2023-07-31T00:44:14;20.40;99.90
40053;DHT22;25758;48.200;16.338;2023-07-31T00:46:39;20.40;99.90
40053;DHT22;25758;48.200;16.338;2023-07-31T00:49:05;20.40;99.90
40053;DHT22;25758;48.200;16.338;2023-07-31T00:51:31;20.40;99.90
40053;DHT22;25758;48.200;16.338;2023-07-31T00:53:58;20.50;99.90
40053;DHT22;25758;48.200;16.338;2023-07-31T00:56:24;20.50;99.90
40053;DHT22;25758;48.200;16.338;2023-07-31T00:58:50;20.30;99.90
40053;DHT22;25758;48.200;16.338;2023-07-31T01:12:00;19.40;99.90
40053;DHT22;25758;48.200;16.338;2023-07-31T01:18:08;19.10;99.90
40053;DHT22;25758;48.200;16.338;2023-07-31T01:20:46;19.60;99.90
40053;DHT22;25758;48.200;16.338;2023-07-31T01:31:07;19.60;99.90
40053;DHT22;25758;48.200;16.338;2023-07-31T01:33:33;19.70;99.90
40053;DHT22;25758;48.200;16.338;2023-07-31T01:38:51;19.80;99.90
40053;DHT22;25758;48.200;16.338;2023-07-31T01:56:58;19.10;99.90
40053;DHT22;25758;48.200;16.338;2023-07-31T01:59:23;18.40;99.90
40053;DHT22;25758;48.200;16.338;2023-07-31T02:01:49;19.00;99.90
40053;DHT22;25758;48.200;16.338;2023-07-31T02:04:18;19.30;99.90
40053;DHT22;25758;48.200;16.338;2023-07-31T02:06:50;18.90;99.90
40053;DHT22;25758;48.200;16.338;2023-07-31T02:09:16;18.80;99.90
40053;DHT22;25758;48.200;16.338;2023-07-31T02:11:47;18.80;99.90
40053;DHT22;25758;48.200;16.338;2023-07-31T02:14:18;17.80;99.90
40053;DHT22;25758;48.200;16.338;2023-07-31T02:16:44;17.70;99.90
40053;DHT22;25758;48.200;16.338;2023-07-31T02:19:10;19.10;99.90
40053;DHT22;25758;48.200;16.338;2023-07-31T02:21:35;18.20;99.90
40053;DHT22;25758;48.200;16.338;2023-07-31T02:32:57;18.90;99.90
40053;DHT22;25758;48.200;16.338;2023-07-31T02:35:23;19.40;99.90
40053;DHT22;25758;48.200;16.338;2023-07-31T02:45:36;19.00;99.90
40053;DHT22;25758;48.200;16.338;2023-07-31T02:48:02;20.10;99.90
40053;DHT22;25758;48.200;16.338;2023-07-31T03:01:15;19.60;99.90
40053;DHT22;25758;48.200;16.338;2023-07-31T03:37:05;19.40;99.90
40053;DHT22;25758;48.200;16.338;2023-07-31T03:49:53;19.40;99.90
40053;DHT22;25758;48.200;16.338;2023-07-31T03:55:05;19.50;99.90
40053;DHT22;25758;48.200;16.338;2023-07-31T03:57:31;19.80;99.90
40053;DHT22;25758;48.200;16.338;2023-07-31T03:59:58;19.80;99.90
40053;DHT22;25758;48.200;16.338;2023-07-31T04:02:23;19.80;99.90
40053;DHT22;25758;48.200;16.338;2023-07-31T04:04:49;19.80;99.90
40053;DHT22;25758;48.200;16.338;2023-07-31T04:07:15;19.80;99.90
40053;DHT22;25758;48.200;16.338;2023-07-31T04:12:32;19.80;99.90
40053;DHT22;25758;48.200;16.338;2023-07-31T04:26:46;19.80;99.90
40053;DHT22;25758;48.200;16.338;2023-07-31T04:29:12;19.80;99.90
40053;DHT22;25758;48.200;16.338;2023-07-31T05:40:19;19.70;99.90
40053;DHT22;25758;48.200;16.338;2023-07-31T05:42:45;20.10;99.90
40053;DHT22;25758;48.200;16.338;2023-07-31T07:03:08;20.70;98.40
40053;DHT22;25758;48.200;16.338;2023-07-31T07:18:48;21.20;96.70
40053;DHT22;25758;48.200;16.338;2023-07-31T07:21:14;21.20;96.60
40053;DHT22;25758;48.200;16.338;2023-07-31T07:31:29;21.40;95.20
40053;DHT22;25758;48.200;16.338;2023-07-31T07:36:41;21.70;94.00
40053;DHT22;25758;48.200;16.338;2023-07-31T07:39:06;21.70;94.70
40053;DHT22;25758;48.200;16.338;2023-07-31T07:41:32;21.80;94.10
40053;DHT22;25758;48.200;16.338;2023-07-31T07:43:57;21.80;94.30
40053;DHT22;25758;48.200;16.338;2023-07-31T07:46:23;21.80;94.50
40053;DHT22;25758;48.200;16.338;2023-07-31T07:48:49;21.90;94.10
40053;DHT22;25758;48.200;16.338;2023-07-31T07:51:14;21.90;93.70
40053;DHT22;25758;48.200;16.338;2023-07-31T07:58:50;22.30;93.10
40053;DHT22;25758;48.200;16.338;2023-07-31T08:04:04;22.60;92.20
40053;DHT22;25758;48.200;16.338;2023-07-31T08:06:30;22.50;92.50
40053;DHT22;25758;48.200;16.338;2023-07-31T08:11:34;22.70;92.50
40053;DHT22;25758;48.200;16.338;2023-07-31T08:13:59;23.00;92.50
40053;DHT22;25758;48.200;16.338;2023-07-31T08:16:25;23.20;91.90
40053;DHT22;25758;48.200;16.338;2023-07-31T08:18:51;23.40;92.00
40053;DHT22;25758;48.200;16.338;2023-07-31T08:21:16;23.60;91.40
40053;DHT22;25758;48.200;16.338;2023-07-31T08:23:42;23.60;91.20
40053;DHT22;25758;48.200;16.338;2023-07-31T08:26:08;23.80;90.70
40053;DHT22;25758;48.200;16.338;2023-07-31T08:28:33;23.70;90.80
40053;DHT22;25758;48.200;16.338;2023-07-31T08:31:00;24.10;90.90
40053;DHT22;25758;48.200;16.338;2023-07-31T08:33:26;24.40;90.50
40053;DHT22;25758;48.200;16.338;2023-07-31T08:35:51;24.70;89.30
40053;DHT22;25758;48.200;16.338;2023-07-31T08:38:17;24.70;88.40
40053;DHT22;25758;48.200;16.338;2023-07-31T08:40:42;24.80;86.20
40053;DHT22;25758;48.200;16.338;2023-07-31T08:43:08;24.70;85.30
40053;DHT22;25758;48.200;16.338;2023-07-31T08:45:34;24.90;85.00
40053;DHT22;25758;48.200;16.338;2023-07-31T08:48:00;24.90;85.20
40053;DHT22;25758;48.200;16.338;2023-07-31T08:50:26;25.00;84.40
40053;DHT22;25758;48.200;16.338;2023-07-31T08:52:53;25.10;84.90
40053;DHT22;25758;48.200;16.338;2023-07-31T08:55:19;24.80;84.30
40053;DHT22;25758;48.200;16.338;2023-07-31T08:57:51;25.00;85.40
40053;DHT22;25758;48.200;16.338;2023-07-31T09:00:20;25.10;83.90
40053;DHT22;25758;48.200;16.338;2023-07-31T09:05:36;25.40;84.90
40053;DHT22;25758;48.200;16.338;2023-07-31T09:08:05;25.50;85.70
40053;DHT22;25758;48.200;16.338;2023-07-31T09:10:32;25.50;83.50
40053;DHT22;25758;48.200;16.338;2023-07-31T09:12:57;25.30;83.90
40053;DHT22;25758;48.200;16.338;2023-07-31T09:15:24;25.20;83.10
40053;DHT22;25758;48.200;16.338;2023-07-31T09:18:01;25.30;84.00
40053;DHT22;25758;48.200;16.338;2023-07-31T09:20:27;25.40;83.80
40053;DHT22;25758;48.200;16.338;2023-07-31T09:22:53;25.40;84.30
40053;DHT22;25758;48.200;16.338;2023-07-31T09:25:23;25.50;84.70
40053;DHT22;25758;48.200;16.338;2023-07-31T09:30:19;25.60;84.50
40053;DHT22;25758;48.200;16.338;2023-07-31T09:32:47;25.50;84.90
40053;DHT22;25758;48.200;16.338;2023-07-31T09:38:12;25.70;84.10
40053;DHT22;25758;48.200;16.338;2023-07-31T09:40:40;25.70;83.30
40053;DHT22;25758;48.200;16.338;2023-07-31T09:43:08;25.30;82.70
40053;DHT22;25758;48.200;16.338;2023-07-31T09:45:37;25.30;82.80
40053;DHT22;25758;48.200;16.338;2023-07-31T09:48:03;25.20;83.10
40053;DHT22;25758;48.200;16.338;2023-07-31T09:50:31;25.00;83.60
40053;DHT22;25758;48.200;16.338;2023-07-31T09:52:57;25.10;84.00
40053;DHT22;25758;48.200;16.338;2023-07-31T09:55:24;25.30;84.10
40053;DHT22;25758;48.200;16.338;2023-07-31T09:57:50;25.40;82.00
40053;DHT22;25758;48.200;16.338;2023-07-31T10:00:17;25.20;82.10
40053;DHT22;25758;48.200;16.338;2023-07-31T10:02:46;25.40;81.90
40053;DHT22;25758;48.200;16.338;2023-07-31T10:05:14;25.50;82.60
40053;DHT22;25758;48.200;16.338;2023-07-31T10:07:43;25.70;82.50
40053;DHT22;25758;48.200;16.338;2023-07-31T10:10:11;25.30;80.50
40053;DHT22;25758;48.200;16.338;2023-07-31T10:12:38;25.40;80.60
40053;DHT22;25758;48.200;16.338;2023-07-31T10:15:05;25.50;82.40
40053;DHT22;25758;48.200;16.338;2023-07-31T10:17:31;25.60;81.40
40053;DHT22;25758;48.200;16.338;2023-07-31T10:19:58;25.60;83.00
40053;DHT22;25758;48.200;16.338;2023-07-31T10:22:28;26.00;82.50
40053;DHT22;25758;48.200;16.338;2023-07-31T10:24:55;25.90;81.20
40053;DHT22;25758;48.200;16.338;2023-07-31T10:27:22;26.10;80.30
40053;DHT22;25758;48.200;16.338;2023-07-31T10:29:48;26.20;79.20
40053;DHT22;25758;48.200;16.338;2023-07-31T10:32:15;26.30;80.00
40053;DHT22;25758;48.200;16.338;2023-07-31T10:34:42;26.30;79.00
40053;DHT22;25758;48.200;16.338;2023-07-31T10:37:28;26.30;80.40
40053;DHT22;25758;48.200;16.338;2023-07-31T10:42:45;26.30;80.90
40053;DHT22;25758;48.200;16.338;2023-07-31T10:45:11;26.10;80.70
40053;DHT22;25758;48.200;16.338;2023-07-31T10:47:38;26.30;79.50
40053;DHT22;25758;48.200;16.338;2023-07-31T10:50:20;26.20;77.60
40053;DHT22;25758;48.200;16.338;2023-07-31T10:52:51;26.20;80.20
40053;DHT22;25758;48.200;16.338;2023-07-31T10:55:42;26.30;79.30
40053;DHT22;25758;48.200;16.338;2023-07-31T10:58:11;26.40;79.70
40053;DHT22;25758;48.200;16.338;2023-07-31T11:00:44;26.30;78.80
40053;DHT22;25758;48.200;16.338;2023-07-31T11:03:17;26.40;80.20
40053;DHT22;25758;48.200;16.338;2023-07-31T11:08:25;26.50;77.80
40053;DHT22;25758;48.200;16.338;2023-07-31T11:11:06;26.50;77.40
40053;DHT22;25758;48.200;16.338;2023-07-31T11:15:58;26.60;78.50
40053;DHT22;25758;48.200;16.338;2023-07-31T11:18:25;26.60;78.50
40053;DHT22;25758;48.200;16.338;2023-07-31T11:20:52;26.50;77.70
40053;DHT22;25758;48.200;16.338;2023-07-31T11:23:19;26.50;76.20
40053;DHT22;25758;48.200;16.338;2023-07-31T11:25:46;26.70;77.40
40053;DHT22;25758;48.200;16.338;2023-07-31T11:28:13;26.70;76.30
40053;DHT22;25758;48.200;16.338;2023-07-31T11:30:41;26.70;77.10
40053;DHT22;25758;48.200;16.338;2023-07-31T11:33:09;26.70;76.70
40053;DHT22;25758;48.200;16.338;2023-07-31T11:35:40;26.60;76.50
40053;DHT22;25758;48.200;16.338;2023-07-31T11:38:07;26.60;77.10
40053;DHT22;25758;48.200;16.338;2023-07-31T11:40:41;26.60;77.90
40053;DHT22;25758;48.200;16.338;2023-07-31T11:43:07;26.20;76.80
40053;DHT22;25758;48.200;16.338;2023-07-31T11:45:33;26.20;77.50
40053;DHT22;25758;48.200;16.338;2023-07-31T11:48:00;26.10;77.30
40053;DHT22;25758;48.200;16.338;2023-07-31T11:50:26;26.00;77.00
40053;DHT22;25758;48.200;16.338;2023-07-31T11:53:01;25.50;76.80
40053;DHT22;25758;48.200;16.338;2023-07-31T11:55:31;25.40;77.20
40053;DHT22;25758;48.200;16.338;2023-07-31T11:57:59;25.50;78.30
40053;DHT22;25758;48.200;16.338;2023-07-31T12:00:25;25.60;77.70
40053;DHT22;25758;48.200;16.338;2023-07-31T12:02:51;25.80;77.50
40053;DHT22;25758;48.200;16.338;2023-07-31T12:05:17;25.90;77.60
40053;DHT22;25758;48.200;16.338;2023-07-31T12:10:09;26.00;76.50
40053;DHT22;25758;48.200;16.338;2023-07-31T12:12:35;26.10;77.40
40053;DHT22;25758;48.200;16.338;2023-07-31T12:15:01;26.20;77.50
40053;DHT22;25758;48.200;16.338;2023-07-31T12:17:26;26.40;76.10
40053;DHT22;25758;48.200;16.338;2023-07-31T12:19:52;26.00;76.30
40053;DHT22;25758;48.200;16.338;2023-07-31T12:22:20;25.80;76.50
40053;DHT22;25758;48.200;16.338;2023-07-31T12:24:46;26.00;77.80
40053;DHT22;25758;48.200;16.338;2023-07-31T12:27:13;26.10;77.20
40053;DHT22;25758;48.200;16.338;2023-07-31T12:29:41;26.20;75.70
40053;DHT22;25758;48.200;16.338;2023-07-31T12:32:23;26.30;76.00
40053;DHT22;25758;48.200;16.338;2023-07-31T12:34:54;26.20;74.50
40053;DHT22;25758;48.200;16.338;2023-07-31T12:37:20;26.20;76.20
40053;DHT22;25758;48.200;16.338;2023-07-31T12:39:46;26.40;75.30
40053;DHT22;25758;48.200;16.338;2023-07-31T12:42:12;26.40;72.90
40053;DHT22;25758;48.200;16.338;2023-07-31T12:44:37;26.40;72.20
40053;DHT22;25758;48.200;16.338;2023-07-31T12:47:03;26.30;70.30
40053;DHT22;25758;48.200;16.338;2023-07-31T12:49:29;26.20;71.90
40053;DHT22;25758;48.200;16.338;2023-07-31T12:51:55;26.20;71.60
40053;DHT22;25758;48.200;16.338;2023-07-31T12:54:20;26.30;72.00
40053;DHT22;25758;48.200;16.338;2023-07-31T12:56:46;26.30;73.10
40053;DHT22;25758;48.200;16.338;2023-07-31T12:59:11;26.30;73.80
40053;DHT22;25758;48.200;16.338;2023-07-31T13:01:37;26.50;73.60
40053;DHT22;25758;48.200;16.338;2023-07-31T13:04:03;25.90;74.30
40053;DHT22;25758;48.200;16.338;2023-07-31T13:06:28;26.00;75.40
40053;DHT22;25758;48.200;16.338;2023-07-31T13:08:54;26.10;75.50
40053;DHT22;25758;48.200;16.338;2023-07-31T13:11:20;26.20;74.50
40053;DHT22;25758;48.200;16.338;2023-07-31T13:13:45;26.40;74.20
40053;DHT22;25758;48.200;16.338;2023-07-31T13:16:11;26.50;75.60
40053;DHT22;25758;48.200;16.338;2023-07-31T13:18:36;26.60;75.20
40053;DHT22;25758;48.200;16.338;2023-07-31T13:21:02;26.60;74.90
40053;DHT22;25758;48.200;16.338;2023-07-31T13:23:28;26.60;75.10
40053;DHT22;25758;48.200;16.338;2023-07-31T13:25:53;26.60;76.20
40053;DHT22;25758;48.200;16.338;2023-07-31T13:28:19;26.70;74.20
40053;DHT22;25758;48.200;16.338;2023-07-31T13:30:44;26.80;74.00
40053;DHT22;25758;48.200;16.338;2023-07-31T13:33:11;26.80;73.30
40053;DHT22;25758;48.200;16.338;2023-07-31T13:35:37;26.90;72.90
40053;DHT22;25758;48.200;16.338;2023-07-31T13:38:02;26.90;74.30
40053;DHT22;25758;48.200;16.338;2023-07-31T13:40:28;26.90;72.70
40053;DHT22;25758;48.200;16.338;2023-07-31T13:42:53;26.70;70.80
40053;DHT22;25758;48.200;16.338;2023-07-31T13:45:20;26.70;70.10
40053;DHT22;25758;48.200;16.338;2023-07-31T13:47:45;26.70;70.50
40053;DHT22;25758;48.200;16.338;2023-07-31T13:50:11;26.80;70.10
40053;DHT22;25758;48.200;16.338;2023-07-31T13:52:36;26.70;70.70
40053;DHT22;25758;48.200;16.338;2023-07-31T13:55:02;26.10;70.20
40053;DHT22;25758;48.200;16.338;2023-07-31T13:57:28;26.70;70.80
40053;DHT22;25758;48.200;16.338;2023-07-31T13:59:53;26.80;71.80
40053;DHT22;25758;48.200;16.338;2023-07-31T14:02:19;26.80;70.60
40053;DHT22;25758;48.200;16.338;2023-07-31T14:04:45;26.90;71.10
40053;DHT22;25758;48.200;16.338;2023-07-31T14:07:10;26.80;70.20
40053;DHT22;25758;48.200;16.338;2023-07-31T14:09:36;26.90;70.80
40053;DHT22;25758;48.200;16.338;2023-07-31T14:12:02;26.80;69.90
40053;DHT22;25758;48.200;16.338;2023-07-31T14:14:27;26.70;70.10
40053;DHT22;25758;48.200;16.338;2023-07-31T14:16:53;26.70;69.80
40053;DHT22;25758;48.200;16.338;2023-07-31T14:19:19;26.80;70.40
40053;DHT22;25758;48.200;16.338;2023-07-31T14:21:45;26.90;71.20
40053;DHT22;25758;48.200;16.338;2023-07-31T14:24:11;26.90;70.90
40053;DHT22;25758;48.200;16.338;2023-07-31T14:26:37;26.90;70.30
40053;DHT22;25758;48.200;16.338;2023-07-31T14:29:02;26.80;69.90
40053;DHT22;25758;48.200;16.338;2023-07-31T14:31:28;26.70;70.60
40053;DHT22;25758;48.200;16.338;2023-07-31T14:33:53;26.60;71.00
40053;DHT22;25758;48.200;16.338;2023-07-31T14:36:19;26.60;69.80
40053;DHT22;25758;48.200;16.338;2023-07-31T14:38:45;26.70;70.20
40053;DHT22;25758;48.200;16.338;2023-07-31T14:41:10;26.80;70.80
40053;DHT22;25758;48.200;16.338;2023-07-31T14:43:36;26.90;69.60
40053;DHT22;25758;48.200;16.338;2023-07-31T14:46:02;26.90;70.00
40053;DHT22;25758;48.200;16.338;2023-07-31T14:48:27;26.90;70.10
40053;DHT22;25758;48.200;16.338;2023-07-31T14:50:54;27.00;69.90
40053;DHT22;25758;48.200;16.338;2023-07-31T14:53:20;27.00;70.20
40053;DHT22;25758;48.200;16.338;2023-07-31T14:55:46;27.00;70.20
40053;DHT22;25758;48.200;16.338;2023-07-31T14:58:12;26.90;69.30
40053;DHT22;25758;48.200;16.338;2023-07-31T15:00:39;26.90;70.20
40053;DHT22;25758;48.200;16.338;2023-07-31T15:03:04;26.90;70.20
40053;DHT22;25758;48.200;16.338;2023-07-31T15:05:30;27.00;70.20
40053;DHT22;25758;48.200;16.338;2023-07-31T15:07:55;27.00;70.80
40053;DHT22;25758;48.200;16.338;2023-07-31T15:10:21;27.10;70.20
40053;DHT22;25758;48.200;16.338;2023-07-31T15:12:47;27.10;70.10
40053;DHT22;25758;48.200;16.338;2023-07-31T15:15:14;27.10;69.50
40053;DHT22;25758;48.200;16.338;2023-07-31T15:17:40;27.10;69.20
40053;DHT22;25758;48.200;16.338;2023-07-31T15:20:06;27.10;69.30
40053;DHT22;25758;48.200;16.338;2023-07-31T15:22:32;27.10;68.70
40053;DHT22;25758;48.200;16.338;2023-07-31T15:24:57;27.20;69.30
40053;DHT22;25758;48.200;16.338;2023-07-31T15:27:23;27.30;69.10
40053;DHT22;25758;48.200;16.338;2023-07-31T15:29:49;27.30;69.10
40053;DHT22;25758;48.200;16.338;2023-07-31T15:32:16;27.30;69.00
40053;DHT22;25758;48.200;16.338;2023-07-31T15:34:43;27.40;68.70
40053;DHT22;25758;48.200;16.338;2023-07-31T15:37:09;27.40;68.80
40053;DHT22;25758;48.200;16.338;2023-07-31T15:39:34;27.40;68.90
40053;DHT22;25758;48.200;16.338;2023-07-31T15:42:00;27.50;68.70
40053;DHT22;25758;48.200;16.338;2023-07-31T15:44:26;27.50;67.50
40053;DHT22;25758;48.200;16.338;2023-07-31T15:46:51;27.50;68.00
40053;DHT22;25758;48.200;16.338;2023-07-31T15:49:17;27.50;66.80
40053;DHT22;25758;48.200;16.338;2023-07-31T15:51:43;27.60;67.00
40053;DHT22;25758;48.200;16.338;2023-07-31T15:54:08;27.50;67.20
40053;DHT22;25758;48.200;16.338;2023-07-31T15:56:34;27.60;67.90
40053;DHT22;25758;48.200;16.338;2023-07-31T15:59:00;27.60;68.90
40053;DHT22;25758;48.200;16.338;2023-07-31T16:01:26;27.70;68.00
40053;DHT22;25758;48.200;16.338;2023-07-31T16:03:52;27.60;68.50
40053;DHT22;25758;48.200;16.338;2023-07-31T16:06:18;27.60;67.70
40053;DHT22;25758;48.200;16.338;2023-07-31T16:08:44;27.60;67.90
40053;DHT22;25758;48.200;16.338;2023-07-31T16:11:10;27.50;68.40
40053;DHT22;25758;48.200;16.338;2023-07-31T16:13:36;27.60;68.90
40053;DHT22;25758;48.200;16.338;2023-07-31T16:16:02;27.60;68.90
40053;DHT22;25758;48.200;16.338;2023-07-31T16:18:28;27.40;69.20
40053;DHT22;25758;48.200;16.338;2023-07-31T16:20:54;27.40;69.50
40053;DHT22;25758;48.200;16.338;2023-07-31T16:23:20;27.50;70.00
40053;DHT22;25758;48.200;16.338;2023-07-31T16:25:46;27.50;70.10
40053;DHT22;25758;48.200;16.338;2023-07-31T16:28:11;27.50;70.50
40053;DHT22;25758;48.200;16.338;2023-07-31T16:30:37;27.40;70.20
40053;DHT22;25758;48.200;16.338;2023-07-31T16:33:03;27.40;70.80
40053;DHT22;25758;48.200;16.338;2023-07-31T16:35:29;27.40;70.70
40053;DHT22;25758;48.200;16.338;2023-07-31T16:37:55;27.40;71.10
40053;DHT22;25758;48.200;16.338;2023-07-31T16:40:20;27.30;70.70
40053;DHT22;25758;48.200;16.338;2023-07-31T16:42:46;27.40;70.80
40053;DHT22;25758;48.200;16.338;2023-07-31T16:45:11;27.40;71.40
40053;DHT22;25758;48.200;16.338;2023-07-31T16:47:37;27.10;71.40
40053;DHT22;25758;48.200;16.338;2023-07-31T16:50:03;27.10;71.80
40053;DHT22;25758;48.200;16.338;2023-07-31T16:52:28;27.00;72.10
40053;DHT22;25758;48.200;16.338;2023-07-31T16:54:54;26.90;72.60
40053;DHT22;25758;48.200;16.338;2023-07-31T16:57:20;26.90;73.10
40053;DHT22;25758;48.200;16.338;2023-07-31T16:59:46;26.80;73.10
40053;DHT22;25758;48.200;16.338;2023-07-31T17:02:11;26.70;73.30
40053;DHT22;25758;48.200;16.338;2023-07-31T17:04:37;26.80;73.50
40053;DHT22;25758;48.200;16.338;2023-07-31T17:07:03;26.70;73.70
40053;DHT22;25758;48.200;16.338;2023-07-31T17:09:28;26.60;73.90
40053;DHT22;25758;48.200;16.338;2023-07-31T17:11:54;26.50;74.40
40053;DHT22;25758;48.200;16.338;2023-07-31T17:14:20;26.40;74.70
40053;DHT22;25758;48.200;16.338;2023-07-31T17:16:46;26.40;74.70
40053;DHT22;25758;48.200;16.338;2023-07-31T17:19:11;26.20;75.10
40053;DHT22;25758;48.200;16.338;2023-07-31T17:21:37;26.20;75.40
40053;DHT22;25758;48.200;16.338;2023-07-31T17:24:03;26.30;75.60
40053;DHT22;25758;48.200;16.338;2023-07-31T17:26:29;26.20;75.50
40053;DHT22;25758;48.200;16.338;2023-07-31T17:28:55;26.20;75.80
40053;DHT22;25758;48.200;16.338;2023-07-31T17:31:21;26.20;75.90
40053;DHT22;25758;48.200;16.338;2023-07-31T17:33:47;26.20;76.20
40053;DHT22;25758;48.200;16.338;2023-07-31T17:36:13;26.10;76.20
40053;DHT22;25758;48.200;16.338;2023-07-31T17:38:39;26.10;76.60
40053;DHT22;25758;48.200;16.338;2023-07-31T17:41:05;26.00;76.90
40053;DHT22;25758;48.200;16.338;2023-07-31T17:43:32;25.90;77.30
40053;DHT22;25758;48.200;16.338;2023-07-31T17:45:58;25.90;77.90
40053;DHT22;25758;48.200;16.338;2023-07-31T17:48:25;25.80;78.40
40053;DHT22;25758;48.200;16.338;2023-07-31T17:50:51;25.80;78.90
40053;DHT22;25758;48.200;16.338;2023-07-31T17:53:19;25.70;79.20
40053;DHT22;25758;48.200;16.338;2023-07-31T17:55:46;25.70;79.50
40053;DHT22;25758;48.200;16.338;2023-07-31T17:58:12;25.60;79.90
40053;DHT22;25758;48.200;16.338;2023-07-31T18:00:40;25.60;80.50
40053;DHT22;25758;48.200;16.338;2023-07-31T18:03:06;25.50;81.40
40053;DHT22;25758;48.200;16.338;2023-07-31T18:05:36;25.50;81.80
40053;DHT22;25758;48.200;16.338;2023-07-31T18:08:03;25.50;82.40
40053;DHT22;25758;48.200;16.338;2023-07-31T18:10:29;25.40;83.30
40053;DHT22;25758;48.200;16.338;2023-07-31T18:12:55;25.40;83.90
40053;DHT22;25758;48.200;16.338;2023-07-31T18:15:22;25.40;84.70
40053;DHT22;25758;48.200;16.338;2023-07-31T18:17:48;25.40;85.10
40053;DHT22;25758;48.200;16.338;2023-07-31T18:20:15;25.30;85.60
40053;DHT22;25758;48.200;16.338;2023-07-31T18:22:41;25.30;86.30
40053;DHT22;25758;48.200;16.338;2023-07-31T18:25:08;25.30;86.60
40053;DHT22;25758;48.200;16.338;2023-07-31T18:27:38;25.20;86.50
40053;DHT22;25758;48.200;16.338;2023-07-31T18:30:06;25.20;87.40
40053;DHT22;25758;48.200;16.338;2023-07-31T18:32:32;25.10;87.90
40053;DHT22;25758;48.200;16.338;2023-07-31T18:34:59;25.00;88.50
40053;DHT22;25758;48.200;16.338;2023-07-31T18:37:25;25.10;88.40
40053;DHT22;25758;48.200;16.338;2023-07-31T18:39:51;25.10;88.80
40053;DHT22;25758;48.200;16.338;2023-07-31T18:42:18;25.10;88.70
40053;DHT22;25758;48.200;16.338;2023-07-31T18:44:44;25.00;90.00
40053;DHT22;25758;48.200;16.338;2023-07-31T18:47:11;25.00;90.00
40053;DHT22;25758;48.200;16.338;2023-07-31T18:49:37;25.00;90.40
40053;DHT22;25758;48.200;16.338;2023-07-31T18:52:05;24.90;90.40
40053;DHT22;25758;48.200;16.338;2023-07-31T18:54:32;24.90;90.90
40053;DHT22;25758;48.200;16.338;2023-07-31T18:56:58;24.90;91.10
40053;DHT22;25758;48.200;16.338;2023-07-31T18:59:25;24.90;91.10
40053;DHT22;25758;48.200;16.338;2023-07-31T19:01:51;24.90;91.40
40053;DHT22;25758;48.200;16.338;2023-07-31T19:04:17;24.90;91.60
40053;DHT22;25758;48.200;16.338;2023-07-31T19:06:44;24.90;91.80
40053;DHT22;25758;48.200;16.338;2023-07-31T19:09:11;24.80;91.80
40053;DHT22;25758;48.200;16.338;2023-07-31T19:11:40;24.70;92.20
40053;DHT22;25758;48.200;16.338;2023-07-31T19:14:08;24.60;92.40
40053;DHT22;25758;48.200;16.338;2023-07-31T19:16:35;24.60;92.50
40053;DHT22;25758;48.200;16.338;2023-07-31T19:19:01;24.50;92.60
40053;DHT22;25758;48.200;16.338;2023-07-31T19:21:27;24.40;92.80
40053;DHT22;25758;48.200;16.338;2023-07-31T19:23:54;24.30;93.20
40053;DHT22;25758;48.200;16.338;2023-07-31T19:26:20;24.30;93.30
40053;DHT22;25758;48.200;16.338;2023-07-31T19:28:46;24.20;93.60
40053;DHT22;25758;48.200;16.338;2023-07-31T19:31:13;24.20;93.70
40053;DHT22;25758;48.200;16.338;2023-07-31T19:33:39;24.10;93.80
40053;DHT22;25758;48.200;16.338;2023-07-31T19:36:05;24.10;93.90
40053;DHT22;25758;48.200;16.338;2023-07-31T19:38:33;24.00;93.80
40053;DHT22;25758;48.200;16.338;2023-07-31T19:41:00;24.00;93.90
40053;DHT22;25758;48.200;16.338;2023-07-31T19:43:26;23.90;93.90
40053;DHT22;25758;48.200;16.338;2023-07-31T19:45:53;23.90;93.90
40053;DHT22;25758;48.200;16.338;2023-07-31T19:48:19;23.80;94.20
40053;DHT22;25758;48.200;16.338;2023-07-31T19:50:47;23.80;94.10
40053;DHT22;25758;48.200;16.338;2023-07-31T19:53:14;23.80;94.10
40053;DHT22;25758;48.200;16.338;2023-07-31T19:55:40;23.80;94.00
40053;DHT22;25758;48.200;16.338;2023-07-31T19:58:07;23.70;93.80
40053;DHT22;25758;48.200;16.338;2023-07-31T20:00:33;23.60;93.70
40053;DHT22;25758;48.200;16.338;2023-07-31T20:03:01;23.60;93.60
40053;DHT22;25758;48.200;16.338;2023-07-31T20:05:27;23.50;93.90
40053;DHT22;25758;48.200;16.338;2023-07-31T20:07:53;23.60;93.90
40053;DHT22;25758;48.200;16.338;2023-07-31T20:10:20;23.60;94.00
40053;DHT22;25758;48.200;16.338;2023-07-31T20:12:46;23.50;93.80
40053;DHT22;25758;48.200;16.338;2023-07-31T20:15:20;23.50;93.70
40053;DHT22;25758;48.200;16.338;2023-07-31T20:17:47;23.60;93.60
40053;DHT22;25758;48.200;16.338;2023-07-31T20:20:13;23.60;93.50
40053;DHT22;25758;48.200;16.338;2023-07-31T20:22:40;23.60;93.60
40053;DHT22;25758;48.200;16.338;2023-07-31T20:25:07;23.60;93.40
40053;DHT22;25758;48.200;16.338;2023-07-31T20:27:33;23.70;93.30
40053;DHT22;25758;48.200;16.338;2023-07-31T20:30:00;23.70;93.30
40053;DHT22;25758;48.200;16.338;2023-07-31T20:32:26;23.70;93.10
40053;DHT22;25758;48.200;16.338;2023-07-31T20:34:52;23.50;93.20
40053;DHT22;25758;48.200;16.338;2023-07-31T20:37:18;23.50;93.10
40053;DHT22;25758;48.200;16.338;2023-07-31T20:39:45;23.60;92.90